createdAt,value
2023-04-24T00:02:14.677Z,95226.91
2023-04-24T00:04:45.754Z,95226.00
2023-04-24T00:07:13.824Z,95228.25
2023-04-24T00:09:42.915Z,95224.16
2023-04-24T00:12:11.382Z,95220.22
2023-04-24T00:14:38.946Z,95215.75
2023-04-24T00:17:07.014Z,95219.66
2023-04-24T00:19:34.610Z,95209.81
2023-04-24T00:22:02.121Z,95215.13
2023-04-24T00:24:29.626Z,95211.84
2023-04-24T00:26:58.444Z,95213.50
2023-04-24T00:29:26.037Z,95208.56
2023-04-24T00:31:53.540Z,95212.28
2023-04-24T00:34:21.247Z,95215.94
2023-04-24T00:36:50.025Z,95217.38
2023-04-24T00:39:17.538Z,95205.75
2023-04-24T00:41:46.419Z,95212.63
2023-04-24T00:44:15.732Z,95217.97
2023-04-24T00:46:43.868Z,95226.09
2023-04-24T00:49:11.698Z,95217.06
2023-04-24T00:51:39.198Z,95213.91
2023-04-24T00:54:06.731Z,95220.88
2023-04-24T00:56:34.828Z,95208.78
2023-04-24T00:59:02.325Z,95201.97
2023-04-24T01:01:31.321Z,95204.25
2023-04-24T01:04:00.226Z,95201.19
2023-04-24T01:06:30.033Z,95204.47
2023-04-24T01:08:57.638Z,95205.69
2023-04-24T01:11:25.370Z,95210.22
2023-04-24T01:13:53.367Z,95205.69
2023-04-24T01:16:21.896Z,95211.84
2023-04-24T01:18:50.927Z,95212.06
2023-04-24T01:21:19.881Z,95210.41
2023-04-24T01:23:48.928Z,95211.44
2023-04-24T01:26:18.562Z,95217.06
2023-04-24T01:28:46.067Z,95221.78
2023-04-24T01:31:13.665Z,95214.28
2023-04-24T01:33:41.308Z,95215.69
2023-04-24T01:36:10.316Z,95215.50
2023-04-24T01:38:37.873Z,95208.13
2023-04-24T01:41:06.725Z,95206.28
2023-04-24T01:43:34.430Z,95199.34
2023-04-24T01:46:01.939Z,95202.41
2023-04-24T01:48:29.795Z,95203.25
2023-04-24T01:50:58.468Z,95207.47
2023-04-24T01:53:25.951Z,95214.25
2023-04-24T01:55:53.484Z,95212.22
2023-04-24T01:58:22.906Z,95204.47
2023-04-24T02:00:50.408Z,95212.59
2023-04-24T02:03:18.107Z,95206.22
2023-04-24T02:05:46.286Z,95207.31
2023-04-24T02:08:13.875Z,95200.38
2023-04-24T02:10:41.364Z,95195.34
2023-04-24T02:13:08.853Z,95193.16
2023-04-24T02:15:37.941Z,95189.31
2023-04-24T02:18:05.590Z,95188.06
2023-04-24T02:20:34.965Z,95183.16
2023-04-24T02:23:02.521Z,95181.50
2023-04-24T02:25:30.041Z,95181.94
2023-04-24T02:27:57.535Z,95183.97
2023-04-24T02:30:25.051Z,95184.38
2023-04-24T02:32:53.854Z,95185.63
2023-04-24T02:35:21.387Z,95177.03
2023-04-24T02:37:48.889Z,95169.22
2023-04-24T02:40:16.644Z,95173.31
2023-04-24T02:42:44.149Z,95173.09
2023-04-24T02:45:12.466Z,95169.66
2023-04-24T02:47:40.040Z,95162.66
2023-04-24T02:50:10.166Z,95152.84
2023-04-24T02:52:37.657Z,95154.47
2023-04-24T02:55:05.975Z,95165.94
2023-04-24T02:57:33.445Z,95156.66
2023-04-24T03:00:01.251Z,95162.69
2023-04-24T03:02:28.915Z,95158.09
2023-04-24T03:04:58.049Z,95156.88
2023-04-24T03:07:26.860Z,95155.63
2023-04-24T03:09:54.354Z,95162.25
2023-04-24T03:12:21.848Z,95154.47
2023-04-24T03:14:49.330Z,95161.75
2023-04-24T03:17:16.815Z,95160.25
2023-04-24T03:19:44.747Z,95154.31
2023-04-24T03:22:13.166Z,95168.66
2023-04-24T03:24:42.190Z,95151.25
2023-04-24T03:27:09.700Z,95155.88
2023-04-24T03:29:37.206Z,95163.69
2023-04-24T03:32:04.996Z,95167.50
2023-04-24T03:34:32.488Z,95159.44
2023-04-24T03:36:59.970Z,95167.34
2023-04-24T03:39:28.338Z,95170.66
2023-04-24T03:41:57.112Z,95177.72
2023-04-24T03:44:24.663Z,95189.56
2023-04-24T03:46:52.182Z,95190.19
2023-04-24T03:49:19.651Z,95201.41
2023-04-24T03:51:47.132Z,95203.25
2023-04-24T03:54:14.721Z,95201.38
2023-04-24T03:56:42.235Z,95190.94
2023-04-24T03:59:11.171Z,95204.22
2023-04-24T04:01:39.090Z,95199.53
2023-04-24T04:04:06.795Z,95201.34
2023-04-24T04:06:34.498Z,95195.78
2023-04-24T04:09:02.216Z,95202.09
2023-04-24T04:11:29.665Z,95199.53
2023-04-24T04:13:57.653Z,95190.59
2023-04-24T04:16:26.497Z,95202.59
2023-04-24T04:18:53.981Z,95195.06
2023-04-24T04:21:21.513Z,95191.31
2023-04-24T04:23:49.038Z,95192.63
2023-04-24T04:26:16.644Z,95189.97
2023-04-24T04:28:45.804Z,95193.25
2023-04-24T04:31:13.874Z,95182.75
2023-04-24T04:33:42.723Z,95181.59
2023-04-24T04:36:10.414Z,95187.31
2023-04-24T04:38:37.976Z,95189.66
2023-04-24T04:41:05.679Z,95188.13
2023-04-24T04:43:33.602Z,95184.22
2023-04-24T04:46:01.704Z,95200.84
2023-04-24T04:48:29.620Z,95193.88
2023-04-24T04:50:58.491Z,95196.19
2023-04-24T04:53:26.924Z,95194.06
2023-04-24T04:55:54.549Z,95206.44
2023-04-24T04:58:22.141Z,95195.09
2023-04-24T05:00:49.664Z,95204.81
2023-04-24T05:03:21.092Z,95193.06
2023-04-24T05:05:49.281Z,95204.34
2023-04-24T05:08:26.451Z,95202.94
2023-04-24T05:10:54.999Z,95203.19
2023-04-24T05:13:35.606Z,95214.44
2023-04-24T05:16:06.494Z,95208.34
2023-04-24T05:18:34.111Z,95208.41
2023-04-24T05:21:02.370Z,95212.28
2023-04-24T05:23:31.546Z,95213.66
2023-04-24T05:25:59.292Z,95221.00
2023-04-24T05:28:29.197Z,95227.09
2023-04-24T05:30:57.316Z,95227.31
2023-04-24T05:33:25.220Z,95222.91
2023-04-24T05:35:52.861Z,95228.09
2023-04-24T05:38:20.887Z,95226.38
2023-04-24T05:40:49.717Z,95228.34
2023-04-24T05:43:17.226Z,95229.19
2023-04-24T05:45:44.739Z,95225.22
2023-04-24T05:48:12.298Z,95224.16
2023-04-24T05:50:39.774Z,95228.59
2023-04-24T05:53:08.043Z,95231.97
2023-04-24T05:55:35.617Z,95229.97
2023-04-24T05:58:04.665Z,95220.91
2023-04-24T06:00:32.578Z,95233.03
2023-04-24T06:03:00.172Z,95224.59
2023-04-24T06:05:28.279Z,95228.34
2023-04-24T06:07:55.937Z,95230.09
2023-04-24T06:10:23.597Z,95233.38
2023-04-24T06:12:51.101Z,95230.97
2023-04-24T06:15:20.582Z,95234.06
2023-04-24T06:17:48.248Z,95229.28
2023-04-24T06:20:15.864Z,95227.03
2023-04-24T06:22:43.344Z,95239.28
2023-04-24T06:25:11.038Z,95247.66
2023-04-24T06:27:38.570Z,95240.63
2023-04-24T06:30:07.350Z,95233.28
2023-04-24T06:32:36.172Z,95243.13
2023-04-24T06:35:03.678Z,95234.63
2023-04-24T06:37:31.335Z,95233.00
2023-04-24T06:39:58.788Z,95230.81
2023-04-24T06:42:26.298Z,95233.97
2023-04-24T06:44:53.758Z,95225.38
2023-04-24T06:47:21.301Z,95229.91
2023-04-24T06:49:51.879Z,95225.78
2023-04-24T06:52:19.350Z,95223.75
2023-04-24T06:54:46.839Z,95217.94
2023-04-24T06:57:14.470Z,95223.31
2023-04-24T06:59:42.075Z,95226.56
2023-04-24T07:02:09.968Z,95219.78
2023-04-24T07:04:37.819Z,95220.75
2023-04-24T07:07:07.691Z,95219.00
2023-04-24T07:09:39.387Z,95216.75
2023-04-24T07:12:07.048Z,95212.25
2023-04-24T07:14:34.513Z,95215.28
2023-04-24T07:17:02.244Z,95216.41
2023-04-24T07:19:29.719Z,95219.69
2023-04-24T07:21:59.120Z,95225.59
2023-04-24T07:24:30.830Z,95214.66
2023-04-24T07:26:58.442Z,95222.47
2023-04-24T07:29:26.087Z,95230.00
2023-04-24T07:31:55.242Z,95230.06
2023-04-24T07:34:22.801Z,95225.00
2023-04-24T07:36:50.364Z,95225.34
2023-04-24T07:39:17.828Z,95237.28
2023-04-24T07:41:46.671Z,95231.53
2023-04-24T07:44:14.123Z,95229.25
2023-04-24T07:46:42.193Z,95233.16
2023-04-24T07:49:13.441Z,95241.22
2023-04-24T07:51:42.346Z,95235.78
2023-04-24T07:54:10.572Z,95231.50
2023-04-24T07:56:39.843Z,95231.50
2023-04-24T07:59:08.992Z,95236.38
2023-04-24T08:01:36.487Z,95224.41
2023-04-24T08:04:04.348Z,95237.00
2023-04-24T08:06:32.898Z,95242.41
2023-04-24T08:09:01.412Z,95246.09
2023-04-24T08:11:29.295Z,95244.22
2023-04-24T08:13:56.898Z,95248.03
2023-04-24T08:16:25.782Z,95254.47
2023-04-24T08:18:53.430Z,95268.06
2023-04-24T08:21:21.717Z,95269.00
2023-04-24T08:23:49.224Z,95280.59
2023-04-24T08:26:16.738Z,95280.50
2023-04-24T08:28:44.491Z,95276.06
2023-04-24T08:31:12.167Z,95283.03
2023-04-24T08:33:41.935Z,95280.53
2023-04-24T08:36:09.597Z,95284.97
2023-04-24T08:38:37.093Z,95274.31
2023-04-24T08:41:05.531Z,95268.94
2023-04-24T08:43:35.324Z,95270.81
2023-04-24T08:46:06.091Z,95279.59
2023-04-24T08:48:36.611Z,95296.66
2023-04-24T08:51:11.710Z,95296.66
2023-04-24T08:53:39.778Z,95292.13
2023-04-24T08:56:07.377Z,95285.69
2023-04-24T08:58:35.621Z,95305.06
2023-04-24T09:01:03.885Z,95299.28
2023-04-24T09:03:33.270Z,95291.34
2023-04-24T09:06:02.022Z,95306.13
2023-04-24T09:08:32.694Z,95285.84
2023-04-24T09:11:02.905Z,95288.91
2023-04-24T09:13:30.746Z,95290.78
2023-04-24T09:15:59.303Z,95301.22
2023-04-24T09:18:28.056Z,95309.06
2023-04-24T09:21:04.193Z,95300.06
2023-04-24T09:23:33.793Z,95286.94
2023-04-24T09:26:02.551Z,95282.66
2023-04-24T09:28:32.683Z,95276.41
2023-04-24T09:31:09.030Z,95286.06
2023-04-24T09:33:36.918Z,95289.75
2023-04-24T09:36:05.002Z,95295.88
2023-04-24T09:38:36.074Z,95300.00
2023-04-24T09:41:04.966Z,95305.34
2023-04-24T09:43:32.920Z,95311.94
2023-04-24T09:46:02.010Z,95309.41
2023-04-24T09:48:33.690Z,95319.91
2023-04-24T09:51:02.759Z,95325.13
2023-04-24T09:53:30.342Z,95321.97
2023-04-24T09:56:04.558Z,95325.34
2023-04-24T09:58:32.167Z,95329.59
2023-04-24T10:00:59.651Z,95328.78
2023-04-24T10:03:30.669Z,95337.06
2023-04-24T10:06:00.758Z,95338.88
2023-04-24T10:08:34.762Z,95322.50
2023-04-24T10:11:03.979Z,95337.53
2023-04-24T10:13:32.304Z,95341.69
2023-04-24T10:16:02.462Z,95336.84
2023-04-24T10:18:30.852Z,95334.56
2023-04-24T10:20:59.427Z,95341.00
2023-04-24T10:23:27.287Z,95330.91
2023-04-24T10:25:55.831Z,95334.41
2023-04-24T10:28:26.530Z,95335.03
2023-04-24T10:30:56.694Z,95343.84
2023-04-24T10:33:24.965Z,95332.84
2023-04-24T10:35:53.768Z,95335.63
2023-04-24T10:38:26.901Z,95340.59
2023-04-24T10:40:59.747Z,95342.66
2023-04-24T10:43:28.650Z,95331.22
2023-04-24T10:46:03.974Z,95329.56
2023-04-24T10:48:31.702Z,95329.75
2023-04-24T10:50:59.424Z,95336.75
2023-04-24T10:53:30.596Z,95319.81
2023-04-24T10:56:05.327Z,95330.22
2023-04-24T10:58:41.944Z,95334.28
2023-04-24T11:01:09.666Z,95333.63
2023-04-24T11:03:38.153Z,95321.34
2023-04-24T11:06:07.936Z,95336.88
2023-04-24T11:08:41.662Z,95342.06
2023-04-24T11:11:13.787Z,95352.72
2023-04-24T11:14:06.099Z,95351.28
2023-04-24T11:16:35.524Z,95357.16
2023-04-24T11:19:05.064Z,95363.13
2023-04-24T11:21:43.301Z,95365.06
2023-04-24T11:24:32.018Z,95385.00
2023-04-24T11:27:02.615Z,95368.59
2023-04-24T11:29:45.894Z,95379.78
2023-04-24T11:32:30.850Z,95382.88
2023-04-24T11:34:59.907Z,95379.09
2023-04-24T11:37:29.500Z,95382.91
2023-04-24T11:39:59.355Z,95374.13
2023-04-24T11:42:27.002Z,95368.69
2023-04-24T11:44:57.872Z,95351.66
2023-04-24T11:47:32.046Z,95356.16
2023-04-24T11:50:00.709Z,95348.25
2023-04-24T11:52:29.180Z,95344.94
2023-04-24T11:54:57.144Z,95346.16
2023-04-24T11:57:28.811Z,95352.50
2023-04-24T11:59:57.788Z,95363.97
2023-04-24T12:02:25.977Z,95359.91
2023-04-24T12:04:54.744Z,95351.50
2023-04-24T12:07:23.207Z,95349.56
2023-04-24T12:09:52.792Z,95352.00
2023-04-24T12:12:20.737Z,95353.56
2023-04-24T12:14:54.627Z,95351.06
2023-04-24T12:17:29.292Z,95344.94
2023-04-24T12:20:00.231Z,95349.69
2023-04-24T12:22:27.910Z,95352.94
2023-04-24T12:25:03.028Z,95341.09
2023-04-24T12:27:32.976Z,95345.31
2023-04-24T12:30:01.305Z,95354.97
2023-04-24T12:32:30.180Z,95349.66
2023-04-24T12:34:58.556Z,95350.25
2023-04-24T12:37:27.498Z,95356.06
2023-04-24T12:40:06.827Z,95349.63
2023-04-24T12:42:34.756Z,95352.09
2023-04-24T12:45:05.067Z,95356.88
2023-04-24T12:47:34.960Z,95359.00
2023-04-24T12:50:02.627Z,95376.94
2023-04-24T12:52:31.989Z,95383.91
2023-04-24T12:55:00.919Z,95391.41
2023-04-24T12:57:30.148Z,95397.31
2023-04-24T12:59:58.864Z,95400.63
2023-04-24T13:02:27.582Z,95400.53
2023-04-24T13:04:56.526Z,95407.97
2023-04-24T13:07:24.196Z,95414.13
2023-04-24T13:09:53.413Z,95415.13
2023-04-24T13:12:21.769Z,95417.53
2023-04-24T13:14:49.297Z,95420.03
2023-04-24T13:17:17.209Z,95414.63
2023-04-24T13:19:46.109Z,95407.03
2023-04-24T13:22:15.068Z,95401.63
2023-04-24T13:24:42.975Z,95411.63
2023-04-24T13:27:11.101Z,95414.94
2023-04-24T13:29:38.728Z,95415.59
2023-04-24T13:32:06.517Z,95402.47
2023-04-24T13:34:35.485Z,95389.66
2023-04-24T13:37:04.685Z,95391.91
2023-04-24T13:39:33.925Z,95397.31
2023-04-24T13:42:04.381Z,95398.44
2023-04-24T13:44:32.705Z,95415.28
2023-04-24T13:47:00.767Z,95403.88
2023-04-24T13:49:28.888Z,95417.19
2023-04-24T13:51:57.672Z,95404.38
2023-04-24T13:54:26.984Z,95415.81
2023-04-24T13:56:59.774Z,95423.28
2023-04-24T13:59:27.458Z,95417.28
2023-04-24T14:01:55.736Z,95417.50
2023-04-24T14:04:23.445Z,95433.47
2023-04-24T14:06:51.427Z,95437.31
2023-04-24T14:09:18.928Z,95428.53
2023-04-24T14:11:46.491Z,95434.88
2023-04-24T14:14:15.536Z,95437.94
2023-04-24T14:16:43.070Z,95430.78
2023-04-24T14:19:10.544Z,95440.59
2023-04-24T14:21:38.026Z,95422.81
2023-04-24T14:24:05.745Z,95429.16
2023-04-24T14:26:33.275Z,95439.38
2023-04-24T14:29:11.726Z,95429.75
2023-04-24T14:31:43.571Z,95431.34
2023-04-24T14:34:11.393Z,95443.03
2023-04-24T14:36:39.087Z,95429.63
2023-04-24T14:39:07.949Z,95438.66
2023-04-24T14:41:36.982Z,95439.78
2023-04-24T14:44:04.769Z,95422.66
2023-04-24T14:46:32.792Z,95428.75
2023-04-24T14:49:01.675Z,95436.16
2023-04-24T14:51:29.195Z,95437.19
2023-04-24T14:53:58.198Z,95433.63
2023-04-24T14:56:25.771Z,95439.09
2023-04-24T14:58:53.314Z,95437.47
2023-04-24T15:01:20.919Z,95436.38
2023-04-24T15:03:48.790Z,95446.53
2023-04-24T15:06:17.870Z,95435.25
2023-04-24T15:08:46.425Z,95436.94
2023-04-24T15:11:15.590Z,95432.63
2023-04-24T15:13:43.042Z,95441.22
2023-04-24T15:16:10.540Z,95446.41
2023-04-24T15:18:38.203Z,95448.97
2023-04-24T15:21:05.984Z,95442.91
2023-04-24T15:23:34.892Z,95441.53
2023-04-24T15:26:02.909Z,95438.31
2023-04-24T15:28:30.479Z,95439.41
2023-04-24T15:30:57.954Z,95446.72
2023-04-24T15:33:26.790Z,95428.03
2023-04-24T15:35:54.308Z,95447.50
2023-04-24T15:38:21.864Z,95444.69
2023-04-24T15:40:50.656Z,95442.09
2023-04-24T15:43:18.185Z,95453.72
2023-04-24T15:45:45.759Z,95458.00
2023-04-24T15:48:13.333Z,95459.59
2023-04-24T15:50:40.790Z,95453.97
2023-04-24T15:53:08.252Z,95463.75
2023-04-24T15:55:37.219Z,95470.19
2023-04-24T15:58:06.171Z,95459.75
2023-04-24T16:00:35.460Z,95465.63
2023-04-24T16:03:03.550Z,95464.50
2023-04-24T16:05:31.371Z,95457.28
2023-04-24T16:07:58.898Z,95472.56
2023-04-24T16:10:26.529Z,95462.50
2023-04-24T16:12:54.567Z,95483.63
2023-04-24T16:15:23.360Z,95493.03
2023-04-24T16:17:51.480Z,95502.94
2023-04-24T16:20:19.096Z,95506.88
2023-04-24T16:22:46.746Z,95507.19
2023-04-24T16:25:14.255Z,95501.19
2023-04-24T16:27:41.818Z,95497.03
2023-04-24T16:30:10.464Z,95501.72
2023-04-24T16:32:39.430Z,95492.28
2023-04-24T16:35:07.469Z,95499.47
2023-04-24T16:37:34.988Z,95496.22
2023-04-24T16:40:04.618Z,95497.91
2023-04-24T16:42:32.113Z,95493.44
2023-04-24T16:44:59.570Z,95502.09
2023-04-24T16:47:27.129Z,95493.78
2023-04-24T16:49:56.089Z,95493.13
2023-04-24T16:52:23.598Z,95493.28
2023-04-24T16:54:51.161Z,95494.28
2023-04-24T16:57:18.616Z,95483.06
2023-04-24T16:59:46.115Z,95505.34
2023-04-24T17:02:14.232Z,95504.25
2023-04-24T17:04:41.843Z,95497.72
2023-04-24T17:07:10.751Z,95509.69
2023-04-24T17:09:38.382Z,95497.97
2023-04-24T17:12:07.448Z,95506.88
2023-04-24T17:14:35.034Z,95499.34
2023-04-24T17:17:02.678Z,95503.09
2023-04-24T17:19:30.422Z,95498.94
2023-04-24T17:21:58.761Z,95504.44
2023-04-24T17:24:27.794Z,95516.84
2023-04-24T17:27:01.708Z,95509.72
2023-04-24T17:29:35.991Z,95511.00
2023-04-24T17:32:03.526Z,95523.69
2023-04-24T17:34:31.343Z,95517.13
2023-04-24T17:36:58.906Z,95508.06
2023-04-24T17:39:27.791Z,95520.69
2023-04-24T17:41:55.260Z,95519.19
2023-04-24T17:44:22.802Z,95511.94
2023-04-24T17:46:50.575Z,95521.28
2023-04-24T17:49:18.113Z,95515.66
2023-04-24T17:51:45.597Z,95526.91
2023-04-24T17:54:13.137Z,95537.97
2023-04-24T17:56:42.061Z,95532.28
2023-04-24T17:59:09.619Z,95527.25
2023-04-24T18:01:37.193Z,95520.53
2023-04-24T18:04:04.980Z,95537.00
2023-04-24T18:06:32.797Z,95542.75
2023-04-24T18:09:00.346Z,95534.22
2023-04-24T18:11:29.015Z,95536.41
2023-04-24T18:13:57.904Z,95547.47
2023-04-24T18:16:25.968Z,95540.47
2023-04-24T18:18:53.895Z,95543.44
2023-04-24T18:21:21.417Z,95544.31
2023-04-24T18:23:48.945Z,95540.72
2023-04-24T18:26:17.100Z,95547.59
2023-04-24T18:28:44.669Z,95551.78
2023-04-24T18:31:13.528Z,95555.34
2023-04-24T18:33:41.317Z,95567.88
2023-04-24T18:36:08.813Z,95568.72
2023-04-24T18:38:36.807Z,95575.50
2023-04-24T18:41:04.422Z,95571.56
2023-04-24T18:43:31.980Z,95575.25
2023-04-24T18:45:59.454Z,95580.22
2023-04-24T18:48:31.069Z,95579.75
2023-04-24T18:50:58.760Z,95583.19
2023-04-24T18:53:26.413Z,95584.81
2023-04-24T18:55:53.874Z,95582.38
2023-04-24T18:58:21.478Z,95592.16
2023-04-24T19:00:48.976Z,95579.34
2023-04-24T19:03:16.762Z,95587.16
2023-04-24T19:05:45.785Z,95584.72
2023-04-24T19:08:13.271Z,95581.41
2023-04-24T19:10:40.871Z,95591.13
2023-04-24T19:13:08.349Z,95592.34
2023-04-24T19:15:35.783Z,95603.06
2023-04-24T19:18:03.498Z,95610.78
2023-04-24T19:20:31.039Z,95604.75
2023-04-24T19:22:59.878Z,95619.41
2023-04-24T19:25:27.400Z,95623.28
2023-04-24T19:27:54.882Z,95632.06
2023-04-24T19:30:22.563Z,95631.84
2023-04-24T19:32:50.120Z,95645.06
2023-04-24T19:35:17.785Z,95640.75
2023-04-24T19:37:45.386Z,95643.72
2023-04-24T19:40:14.401Z,95627.19
2023-04-24T19:42:44.539Z,95627.06
2023-04-24T19:45:12.735Z,95627.22
2023-04-24T19:47:40.332Z,95629.31
2023-04-24T19:50:08.881Z,95625.50
2023-04-24T19:52:36.434Z,95625.22
2023-04-24T19:55:04.005Z,95617.94
2023-04-24T19:57:32.850Z,95629.31
2023-04-24T20:00:00.500Z,95620.06
2023-04-24T20:02:28.112Z,95623.84
2023-04-24T20:04:55.911Z,95615.13
2023-04-24T20:07:23.669Z,95623.38
2023-04-24T20:09:51.214Z,95625.66
2023-04-24T20:12:19.569Z,95625.00
2023-04-24T20:14:49.234Z,95618.88
2023-04-24T20:17:17.093Z,95626.22
2023-04-24T20:19:44.792Z,95614.69
2023-04-24T20:22:13.457Z,95621.78
2023-04-24T20:24:41.347Z,95616.13
2023-04-24T20:27:08.828Z,95627.59
2023-04-24T20:29:36.661Z,95633.00
2023-04-24T20:32:06.462Z,95628.53
2023-04-24T20:34:33.997Z,95627.25
2023-04-24T20:37:03.895Z,95624.97
2023-04-24T20:39:31.391Z,95619.41
2023-04-24T20:41:59.250Z,95631.00
2023-04-24T20:44:26.770Z,95626.25
2023-04-24T20:46:54.491Z,95625.22
2023-04-24T20:49:23.351Z,95629.69
2023-04-24T20:51:50.904Z,95627.06
2023-04-24T20:54:18.393Z,95631.84
2023-04-24T20:56:46.390Z,95629.00
2023-04-24T20:59:13.911Z,95628.16
2023-04-24T21:01:44.138Z,95626.69
2023-04-24T21:04:12.055Z,95625.22
2023-04-24T21:06:40.941Z,95625.88
2023-04-24T21:09:09.444Z,95636.25
2023-04-24T21:11:36.965Z,95629.28
2023-04-24T21:14:04.456Z,95635.97
2023-04-24T21:16:31.968Z,95625.41
2023-04-24T21:18:59.466Z,95632.22
2023-04-24T21:21:26.949Z,95631.50
2023-04-24T21:23:55.839Z,95619.59
2023-04-24T21:26:23.389Z,95624.59
2023-04-24T21:28:50.956Z,95630.91
2023-04-24T21:31:18.483Z,95622.25
2023-04-24T21:33:45.986Z,95613.69
2023-04-24T21:36:13.495Z,95621.09
2023-04-24T21:38:40.974Z,95619.47
2023-04-24T21:41:09.788Z,95617.47
2023-04-24T21:43:44.821Z,95613.69
2023-04-24T21:46:13.053Z,95612.50
2023-04-24T21:48:40.541Z,95609.19
2023-04-24T21:51:08.078Z,95605.19
2023-04-24T21:53:35.544Z,95594.66
2023-04-24T21:56:03.187Z,95598.84
2023-04-24T21:58:32.069Z,95598.56
2023-04-24T22:00:59.712Z,95591.78
2023-04-24T22:03:27.387Z,95590.47
2023-04-24T22:05:54.990Z,95585.25
2023-04-24T22:08:22.476Z,95588.06
2023-04-24T22:10:50.636Z,95586.91
2023-04-24T22:13:18.172Z,95584.84
2023-04-24T22:15:47.016Z,95591.13
2023-04-24T22:18:14.471Z,95588.34
2023-04-24T22:20:42.576Z,95583.31
2023-04-24T22:23:10.119Z,95589.97
2023-04-24T22:25:37.589Z,95587.25
2023-04-24T22:28:05.178Z,95583.34
2023-04-24T22:30:32.704Z,95583.19
2023-04-24T22:33:01.593Z,95573.19
2023-04-24T22:35:29.082Z,95581.66
2023-04-24T22:37:57.399Z,95575.34
2023-04-24T22:40:26.051Z,95569.00
2023-04-24T22:42:53.959Z,95563.50
2023-04-24T22:45:23.568Z,95571.66
2023-04-24T22:47:51.345Z,95566.50
2023-04-24T22:50:20.931Z,95569.59
2023-04-24T22:52:48.562Z,95575.47
2023-04-24T22:55:16.165Z,95574.06
2023-04-24T22:57:44.012Z,95567.25
2023-04-24T23:00:13.002Z,95571.22
2023-04-24T23:02:42.025Z,95571.91
2023-04-24T23:05:10.929Z,95566.59
2023-04-24T23:07:39.828Z,95566.84
2023-04-24T23:10:08.192Z,95552.53
2023-04-24T23:12:35.819Z,95556.97
2023-04-24T23:15:03.448Z,95553.78
2023-04-24T23:17:30.965Z,95557.84
2023-04-24T23:19:58.468Z,95561.59
2023-04-24T23:22:25.998Z,95552.41
2023-04-24T23:24:54.808Z,95547.13
2023-04-24T23:27:22.304Z,95548.44
2023-04-24T23:29:50.019Z,95540.50
2023-04-24T23:32:17.536Z,95542.13
2023-04-24T23:34:45.663Z,95542.34
2023-04-24T23:37:13.266Z,95539.56
2023-04-24T23:39:40.748Z,95534.44
2023-04-24T23:42:09.533Z,95537.91
2023-04-24T23:44:37.853Z,95527.00
2023-04-24T23:47:05.408Z,95528.41
2023-04-24T23:49:32.910Z,95525.13
2023-04-24T23:52:00.468Z,95527.38
2023-04-24T23:54:27.962Z,95532.69
2023-04-24T23:56:55.844Z,95525.88
2023-04-24T23:59:24.649Z,95517.78
